createdAt,value
2023-01-28T00:04:14.637Z,76.76
2023-01-28T00:09:21.892Z,77.17
2023-01-28T00:20:08.196Z,76.76
2023-01-28T00:25:18.452Z,76.87
2023-01-28T00:30:25.991Z,76.89
2023-01-28T00:35:33.372Z,76.88
2023-01-28T00:40:40.773Z,76.84
2023-01-28T00:45:50.305Z,76.96
2023-01-28T00:50:58.447Z,77.70
2023-01-28T00:56:07.236Z,78.15
2023-01-28T01:01:17.589Z,78.24
2023-01-28T01:06:26.329Z,78.68
2023-01-28T01:11:37.012Z,78.77
2023-01-28T01:16:44.482Z,78.26
2023-01-28T01:21:51.736Z,78.68
2023-01-28T01:26:58.962Z,78.78
2023-01-28T01:32:05.005Z,78.90
2023-01-28T01:37:13.292Z,79.08
2023-01-28T01:42:20.876Z,79.01
2023-01-28T01:47:34.314Z,79.22
2023-01-28T01:52:42.969Z,78.99
2023-01-28T01:57:53.501Z,78.95
2023-01-28T02:03:01.176Z,78.80
2023-01-28T02:08:25.753Z,78.77
2023-01-28T02:13:38.377Z,78.38
2023-01-28T02:18:46.212Z,78.89
2023-01-28T02:24:08.911Z,78.83
2023-01-28T02:29:22.181Z,78.93
2023-01-28T02:34:37.630Z,78.78
2023-01-28T02:39:49.942Z,78.82
2023-01-28T02:44:57.342Z,78.86
2023-01-28T02:50:09.179Z,79.14
2023-01-28T02:55:26.469Z,79.07
2023-01-28T03:00:41.724Z,79.24
2023-01-28T03:06:07.142Z,79.04
2023-01-28T03:11:33.232Z,78.96
2023-01-28T03:16:59.371Z,79.32
2023-01-28T03:22:25.322Z,79.19
2023-01-28T03:37:54.900Z,80.09
2023-01-28T03:43:03.121Z,80.06
2023-01-28T03:48:10.739Z,79.80
2023-01-28T03:53:20.317Z,80.09
2023-01-28T03:58:47.045Z,79.77
2023-01-28T04:03:55.178Z,79.17
2023-01-28T04:09:02.676Z,79.62
2023-01-28T04:14:10.595Z,79.85
2023-01-28T04:19:18.538Z,79.31
2023-01-28T04:24:26.493Z,79.20
2023-01-28T04:29:34.349Z,79.05
2023-01-28T04:34:41.772Z,78.83
2023-01-28T04:39:49.267Z,78.72
2023-01-28T04:44:58.392Z,79.55
2023-01-28T04:50:06.283Z,79.72
2023-01-28T04:55:14.592Z,79.15
2023-01-28T05:00:23.314Z,79.57
2023-01-28T05:05:30.515Z,79.22
2023-01-28T05:10:37.916Z,78.43
2023-01-28T05:15:45.760Z,78.95
2023-01-28T05:20:53.464Z,78.72
2023-01-28T05:26:00.861Z,78.96
2023-01-28T05:31:11.615Z,78.44
2023-01-28T05:36:19.500Z,78.67
2023-01-28T05:41:26.712Z,78.99
2023-01-28T05:46:32.740Z,79.26
2023-01-28T05:51:41.019Z,79.65
2023-01-28T05:56:48.930Z,79.90
2023-01-28T06:01:56.427Z,80.03
2023-01-28T06:07:03.648Z,80.10
2023-01-28T06:12:11.512Z,79.51
2023-01-28T06:17:19.045Z,79.17
2023-01-28T06:25:11.605Z,78.74
2023-01-28T06:30:20.321Z,78.61
2023-01-28T06:35:28.295Z,78.87
2023-01-28T06:40:36.193Z,79.46
2023-01-28T06:45:44.562Z,79.16
2023-01-28T06:50:52.967Z,78.84
2023-01-28T06:56:00.874Z,78.37
2023-01-28T07:01:08.581Z,78.57
2023-01-28T07:06:16.903Z,78.93
2023-01-28T07:11:24.733Z,78.82
2023-01-28T07:16:32.343Z,79.44
2023-01-28T07:21:39.946Z,79.44
2023-01-28T07:26:49.070Z,78.91
2023-01-28T07:31:56.569Z,78.98
2023-01-28T07:37:04.092Z,78.84
2023-01-28T07:42:13.840Z,79.37
2023-01-28T07:47:23.309Z,79.14
2023-01-28T07:52:32.039Z,79.30
2023-01-28T07:57:49.212Z,78.97
2023-01-28T08:03:00.892Z,78.78
2023-01-28T08:08:09.934Z,78.44
2023-01-28T08:13:18.987Z,78.21
2023-01-28T08:18:26.890Z,77.87
2023-01-28T08:23:35.305Z,76.56
2023-01-28T08:28:43.035Z,76.41
2023-01-28T08:33:50.362Z,75.81
2023-01-28T08:38:57.549Z,75.73
2023-01-28T08:44:04.104Z,76.02
2023-01-28T08:49:12.375Z,75.16
2023-01-28T08:54:20.748Z,75.52
2023-01-28T08:59:28.370Z,75.14
2023-01-28T09:04:36.747Z,75.33
2023-01-28T09:09:44.509Z,75.51
2023-01-28T09:14:52.529Z,75.70
2023-01-28T09:20:00.172Z,76.35
2023-01-28T09:25:09.548Z,76.17
2023-01-28T09:30:18.592Z,75.78
2023-01-28T09:35:26.549Z,76.00
2023-01-28T09:40:42.823Z,76.54
2023-01-28T09:45:52.515Z,76.49
2023-01-28T09:51:03.457Z,76.68
2023-01-28T09:56:21.161Z,76.70
2023-01-28T10:01:43.003Z,76.18
2023-01-28T10:07:00.344Z,76.24
2023-01-28T10:12:23.021Z,76.07
2023-01-28T10:17:37.187Z,75.41
2023-01-28T10:22:50.006Z,75.15
2023-01-28T10:27:58.497Z,75.51
2023-01-28T10:33:18.663Z,75.54
2023-01-28T10:38:28.496Z,75.65
2023-01-28T10:43:40.391Z,74.58
2023-01-28T10:48:56.162Z,74.74
2023-01-28T10:54:04.722Z,74.67
2023-01-28T10:59:27.689Z,74.55
2023-01-28T11:04:37.664Z,75.74
2023-01-28T11:09:49.216Z,75.70
2023-01-28T11:14:58.145Z,74.46
2023-01-28T11:20:20.707Z,75.69
2023-01-28T11:25:32.523Z,75.00
2023-01-28T11:30:42.194Z,75.03
2023-01-28T11:35:58.812Z,74.83
2023-01-28T11:41:06.724Z,74.65
2023-01-28T11:46:54.606Z,74.90
2023-01-28T11:52:12.467Z,75.51
2023-01-28T11:57:27.516Z,75.11
2023-01-28T12:02:51.305Z,75.15
2023-01-28T12:08:08.492Z,75.05
2023-01-28T12:13:35.849Z,75.17
2023-01-28T12:19:05.989Z,75.47
2023-01-28T12:24:27.595Z,75.69
2023-01-28T12:29:42.798Z,75.52
2023-01-28T12:35:09.277Z,75.34
2023-01-28T12:40:33.753Z,75.73
2023-01-28T12:45:46.977Z,75.75
2023-01-28T12:50:58.875Z,75.45
2023-01-28T12:56:15.941Z,75.94
2023-01-28T13:01:27.400Z,75.10
2023-01-28T13:06:40.587Z,74.53
2023-01-28T13:11:51.459Z,74.23
2023-01-28T13:17:10.058Z,74.20
2023-01-28T13:22:32.200Z,74.20
2023-01-28T13:27:39.903Z,73.55
2023-01-28T13:32:58.982Z,73.84
2023-01-28T13:38:17.607Z,72.96
2023-01-28T13:43:40.002Z,72.11
2023-01-28T13:48:52.211Z,72.46
2023-01-28T13:54:05.293Z,72.05
2023-01-28T13:59:29.649Z,72.47
2023-01-28T14:05:00.779Z,72.98
2023-01-28T14:10:18.996Z,73.62
2023-01-28T14:16:00.057Z,73.22
2023-01-28T14:21:13.723Z,73.00
2023-01-28T14:26:33.106Z,72.93
2023-01-28T14:31:41.715Z,73.13
2023-01-28T14:36:50.369Z,72.94
2023-01-28T14:42:00.329Z,74.12
2023-01-28T14:47:46.593Z,75.15
2023-01-28T14:53:06.536Z,75.81
2023-01-28T14:58:19.757Z,76.55
2023-01-28T15:03:28.377Z,77.14
2023-01-28T15:08:38.985Z,77.54
2023-01-28T15:13:50.941Z,77.76
2023-01-28T15:19:00.790Z,77.83
2023-01-28T15:24:14.658Z,78.04
2023-01-28T15:29:34.187Z,78.38
2023-01-28T15:34:49.279Z,78.68
2023-01-28T15:40:07.241Z,78.57
2023-01-28T15:45:20.976Z,78.99
2023-01-28T15:50:29.238Z,78.98
2023-01-28T15:55:40.352Z,79.22
2023-01-28T16:00:48.914Z,79.54
2023-01-28T16:06:02.623Z,79.66
2023-01-28T16:11:12.311Z,79.85
2023-01-28T16:16:30.144Z,79.83
2023-01-28T16:21:44.655Z,80.30
2023-01-28T16:27:00.999Z,80.62
2023-01-28T16:32:29.868Z,81.22
2023-01-28T16:37:39.431Z,81.78
2023-01-28T16:42:49.965Z,81.95
2023-01-28T16:47:57.216Z,82.38
2023-01-28T16:53:04.845Z,82.74
2023-01-28T16:58:12.996Z,83.00
2023-01-28T17:03:21.406Z,83.36
2023-01-28T17:08:29.125Z,83.85
2023-01-28T17:13:37.941Z,83.99
2023-01-28T17:18:47.980Z,84.28
2023-01-28T17:23:58.171Z,84.45
2023-01-28T17:29:07.175Z,84.45
2023-01-28T17:34:14.623Z,84.75
2023-01-28T17:39:22.031Z,84.65
2023-01-28T17:44:29.582Z,84.74
2023-01-28T17:49:36.839Z,84.86
2023-01-28T17:54:44.254Z,84.89
2023-01-28T17:59:51.623Z,85.02
2023-01-28T18:04:59.257Z,85.42
2023-01-28T18:10:08.212Z,85.74
2023-01-28T18:15:17.607Z,86.03
2023-01-28T18:20:25.469Z,86.35
2023-01-28T18:25:33.227Z,86.42
2023-01-28T18:30:40.762Z,86.55
2023-01-28T18:35:49.930Z,86.68
2023-01-28T18:40:58.868Z,86.98
2023-01-28T18:46:13.222Z,87.13
2023-01-28T18:51:29.929Z,87.05
2023-01-28T18:56:39.665Z,87.30
2023-01-28T19:01:48.381Z,87.25
2023-01-28T19:06:58.507Z,87.01
2023-01-28T19:12:07.290Z,87.04
2023-01-28T19:17:15.070Z,86.96
2023-01-28T19:22:22.481Z,86.67
2023-01-28T19:27:29.790Z,86.52
2023-01-28T19:32:37.230Z,86.60
2023-01-28T19:37:46.356Z,86.45
2023-01-28T19:42:56.353Z,86.37
2023-01-28T19:48:03.823Z,86.37
2023-01-28T19:53:11.428Z,86.22
2023-01-28T19:58:19.928Z,86.19
2023-01-28T20:03:27.401Z,86.12
2023-01-28T20:08:35.376Z,86.17
2023-01-28T20:13:45.495Z,86.23
2023-01-28T20:18:56.139Z,86.08
2023-01-28T20:24:06.934Z,85.86
2023-01-28T20:29:18.013Z,85.89
2023-01-28T20:34:25.638Z,85.76
2023-01-28T20:39:33.403Z,85.97
2023-01-28T20:44:41.049Z,85.67
2023-01-28T20:49:48.837Z,85.16
2023-01-28T20:54:56.391Z,84.85
2023-01-28T21:00:03.952Z,84.95
2023-01-28T21:05:12.854Z,84.79
2023-01-28T21:10:21.320Z,84.75
2023-01-28T21:15:28.633Z,84.84
2023-01-28T21:20:37.269Z,85.24
2023-01-28T21:25:46.800Z,85.31
2023-01-28T21:30:54.048Z,84.79
2023-01-28T21:36:01.713Z,84.69
2023-01-28T21:41:10.554Z,85.00
2023-01-28T21:46:18.913Z,84.73
2023-01-28T21:51:40.595Z,84.60
2023-01-28T21:56:49.472Z,84.39
2023-01-28T22:01:57.013Z,84.75
2023-01-28T22:07:06.292Z,84.85
2023-01-28T22:12:17.341Z,84.98
2023-01-28T22:17:25.729Z,85.28
2023-01-28T22:22:33.786Z,85.56
2023-01-28T22:27:43.621Z,85.89
2023-01-28T22:32:52.744Z,86.04
2023-01-28T22:38:00.400Z,86.43
2023-01-28T22:43:08.273Z,86.65
2023-01-28T22:48:16.123Z,86.79
2023-01-28T22:53:23.519Z,87.11
2023-01-28T22:58:31.780Z,87.20
2023-01-28T23:03:39.887Z,87.73
2023-01-28T23:08:48.721Z,88.16
2023-01-28T23:14:15.571Z,88.24
2023-01-28T23:19:41.795Z,88.58
2023-01-28T23:24:49.522Z,88.70
2023-01-28T23:29:59.199Z,89.00
2023-01-28T23:44:47.937Z,89.11
2023-01-28T23:49:52.431Z,89.01
2023-01-28T23:54:57.198Z,88.03
